sensor_id;sensor_type;location;lat;lon;timestamp;pressure;altitude;pressure_sealevel;temperature;humidity
12077;BME280;12420;42.676;23.262;2022-08-05T00:01:39;94736.03;;;21.89;79.56
12077;BME280;12420;42.676;23.262;2022-08-05T00:04:06;94702.47;;;21.62;79.96
12077;BME280;12420;42.676;23.262;2022-08-05T00:06:33;94716.63;;;21.83;80.06
12077;BME280;12420;42.676;23.262;2022-08-05T00:09:00;94702.16;;;21.67;81.14
12077;BME280;12420;42.676;23.262;2022-08-05T00:11:27;94693.34;;;21.52;82.37
12077;BME280;12420;42.676;23.262;2022-08-05T00:13:54;94717.03;;;21.58;83.17
12077;BME280;12420;42.676;23.262;2022-08-05T00:16:24;94719.31;;;21.50;84.12
12077;BME280;12420;42.676;23.262;2022-08-05T00:18:51;94722.38;;;21.54;84.84
12077;BME280;12420;42.676;23.262;2022-08-05T00:21:18;94681.72;;;21.26;85.61
12077;BME280;12420;42.676;23.262;2022-08-05T00:23:47;94708.38;;;21.35;86.57
12077;BME280;12420;42.676;23.262;2022-08-05T00:26:14;94718.75;;;21.22;87.51
12077;BME280;12420;42.676;23.262;2022-08-05T00:28:41;94692.88;;;21.14;87.45
12077;BME280;12420;42.676;23.262;2022-08-05T00:31:08;94705.75;;;21.17;88.20
12077;BME280;12420;42.676;23.262;2022-08-05T00:33:37;94699.09;;;21.13;88.40
12077;BME280;12420;42.676;23.262;2022-08-05T00:36:04;94712.69;;;21.16;88.38
12077;BME280;12420;42.676;23.262;2022-08-05T00:38:31;94689.22;;;20.92;89.31
12077;BME280;12420;42.676;23.262;2022-08-05T00:40:58;94694.38;;;20.96;88.44
12077;BME280;12420;42.676;23.262;2022-08-05T00:43:25;94702.50;;;21.11;88.54
12077;BME280;12420;42.676;23.262;2022-08-05T00:45:53;94717.91;;;21.10;87.49
12077;BME280;12420;42.676;23.262;2022-08-05T00:48:21;94693.97;;;20.90;87.33
12077;BME280;12420;42.676;23.262;2022-08-05T00:50:51;94710.19;;;21.20;87.52
12077;BME280;12420;42.676;23.262;2022-08-05T00:53:19;94713.13;;;21.22;86.32
12077;BME280;12420;42.676;23.262;2022-08-05T00:55:47;94701.09;;;21.32;85.13
12077;BME280;12420;42.676;23.262;2022-08-05T00:58:15;94707.78;;;21.27;85.97
12077;BME280;12420;42.676;23.262;2022-08-05T01:00:42;94698.16;;;21.30;84.63
12077;BME280;12420;42.676;23.262;2022-08-05T01:03:11;94734.00;;;21.29;84.69
12077;BME280;12420;42.676;23.262;2022-08-05T01:05:39;94701.38;;;21.36;84.97
12077;BME280;12420;42.676;23.262;2022-08-05T01:08:07;94705.84;;;21.29;84.91
12077;BME280;12420;42.676;23.262;2022-08-05T01:10:42;94702.59;;;21.33;85.18
12077;BME280;12420;42.676;23.262;2022-08-05T01:13:15;94707.59;;;21.34;84.18
12077;BME280;12420;42.676;23.262;2022-08-05T01:15:49;94705.09;;;21.29;84.84
12077;BME280;12420;42.676;23.262;2022-08-05T01:18:24;94666.88;;;20.85;86.29
12077;BME280;12420;42.676;23.262;2022-08-05T01:21:03;94711.09;;;20.94;86.40
12077;BME280;12420;42.676;23.262;2022-08-05T01:23:53;94705.78;;;20.88;86.95
12077;BME280;12420;42.676;23.262;2022-08-05T01:26:56;94708.91;;;20.92;87.41
12077;BME280;12420;42.676;23.262;2022-08-05T01:29:31;94686.88;;;20.69;88.04
12077;BME280;12420;42.676;23.262;2022-08-05T01:32:02;94713.66;;;20.70;88.58
12077;BME280;12420;42.676;23.262;2022-08-05T01:34:33;94713.09;;;20.72;89.18
12077;BME280;12420;42.676;23.262;2022-08-05T01:37:04;94726.84;;;20.77;88.91
12077;BME280;12420;42.676;23.262;2022-08-05T01:39:34;94720.91;;;20.73;89.09
12077;BME280;12420;42.676;23.262;2022-08-05T01:42:04;94707.00;;;20.66;89.17
12077;BME280;12420;42.676;23.262;2022-08-05T01:44:34;94690.28;;;20.58;88.78
12077;BME280;12420;42.676;23.262;2022-08-05T01:47:03;94704.81;;;20.64;89.21
12077;BME280;12420;42.676;23.262;2022-08-05T01:49:31;94703.16;;;20.51;89.55
12077;BME280;12420;42.676;23.262;2022-08-05T01:52:01;94711.59;;;20.51;90.17
12077;BME280;12420;42.676;23.262;2022-08-05T01:54:32;94715.75;;;20.60;90.56
12077;BME280;12420;42.676;23.262;2022-08-05T01:57:01;94713.09;;;20.62;90.31
12077;BME280;12420;42.676;23.262;2022-08-05T01:59:32;94712.78;;;20.58;89.68
12077;BME280;12420;42.676;23.262;2022-08-05T02:02:01;94703.88;;;20.52;90.16
12077;BME280;12420;42.676;23.262;2022-08-05T02:04:29;94718.56;;;20.60;90.29
12077;BME280;12420;42.676;23.262;2022-08-05T02:06:58;94723.13;;;20.55;90.33
12077;BME280;12420;42.676;23.262;2022-08-05T02:09:25;94721.78;;;20.47;91.12
12077;BME280;12420;42.676;23.262;2022-08-05T02:11:59;94713.50;;;20.29;92.10
12077;BME280;12420;42.676;23.262;2022-08-05T02:14:31;94727.72;;;20.31;92.68
12077;BME280;12420;42.676;23.262;2022-08-05T02:17:04;94684.03;;;20.01;93.54
12077;BME280;12420;42.676;23.262;2022-08-05T02:19:35;94717.19;;;20.12;94.08
12077;BME280;12420;42.676;23.262;2022-08-05T02:22:08;94652.56;;;19.56;95.37
12077;BME280;12420;42.676;23.262;2022-08-05T02:24:41;94711.25;;;19.99;96.38
12077;BME280;12420;42.676;23.262;2022-08-05T02:27:15;94712.59;;;19.98;96.60
12077;BME280;12420;42.676;23.262;2022-08-05T02:29:45;94625.66;;;19.34;96.72
12077;BME280;12420;42.676;23.262;2022-08-05T02:32:17;94700.59;;;19.87;96.22
12077;BME280;12420;42.676;23.262;2022-08-05T02:34:50;94712.28;;;19.93;93.29
12077;BME280;12420;42.676;23.262;2022-08-05T02:37:22;94710.66;;;20.00;93.21
12077;BME280;12420;42.676;23.262;2022-08-05T02:39:49;94711.84;;;20.07;93.84
12077;BME280;12420;42.676;23.262;2022-08-05T02:42:19;94715.84;;;20.04;93.63
12077;BME280;12420;42.676;23.262;2022-08-05T02:44:47;94696.00;;;20.02;93.09
12077;BME280;12420;42.676;23.262;2022-08-05T02:47:16;94704.03;;;20.05;93.55
12077;BME280;12420;42.676;23.262;2022-08-05T02:49:44;94693.03;;;19.80;94.86
12077;BME280;12420;42.676;23.262;2022-08-05T02:52:16;94697.78;;;19.87;94.64
12077;BME280;12420;42.676;23.262;2022-08-05T02:54:44;94706.03;;;19.85;94.45
12077;BME280;12420;42.676;23.262;2022-08-05T02:57:14;94711.81;;;19.87;94.39
12077;BME280;12420;42.676;23.262;2022-08-05T02:59:43;94710.50;;;19.98;93.54
12077;BME280;12420;42.676;23.262;2022-08-05T03:02:11;94706.97;;;19.98;93.34
12077;BME280;12420;42.676;23.262;2022-08-05T03:04:45;94727.53;;;20.00;93.19
12077;BME280;12420;42.676;23.262;2022-08-05T03:07:12;94719.38;;;20.04;92.78
12077;BME280;12420;42.676;23.262;2022-08-05T03:09:41;94704.91;;;20.08;92.63
12077;BME280;12420;42.676;23.262;2022-08-05T03:14:36;94691.13;;;19.92;93.45
12077;BME280;12420;42.676;23.262;2022-08-05T03:17:09;94698.06;;;19.91;92.14
12077;BME280;12420;42.676;23.262;2022-08-05T03:19:35;94726.75;;;20.00;92.86
12077;BME280;12420;42.676;23.262;2022-08-05T03:22:04;94660.63;;;19.69;93.14
12077;BME280;12420;42.676;23.262;2022-08-05T03:24:31;94712.28;;;20.03;93.08
12077;BME280;12420;42.676;23.262;2022-08-05T03:26:58;94708.69;;;19.83;93.45
12077;BME280;12420;42.676;23.262;2022-08-05T03:29:25;94688.72;;;19.69;93.54
12077;BME280;12420;42.676;23.262;2022-08-05T03:31:53;94704.16;;;19.98;93.22
12077;BME280;12420;42.676;23.262;2022-08-05T03:34:20;94706.03;;;19.85;93.71
12077;BME280;12420;42.676;23.262;2022-08-05T03:36:48;94709.91;;;19.90;93.35
12077;BME280;12420;42.676;23.262;2022-08-05T03:39:16;94689.91;;;19.76;93.56
12077;BME280;12420;42.676;23.262;2022-08-05T03:41:43;94714.38;;;20.03;93.70
12077;BME280;12420;42.676;23.262;2022-08-05T03:44:10;94753.97;;;20.07;93.13
12077;BME280;12420;42.676;23.262;2022-08-05T03:46:37;94709.03;;;20.07;92.71
12077;BME280;12420;42.676;23.262;2022-08-05T03:49:03;94712.28;;;20.03;93.36
12077;BME280;12420;42.676;23.262;2022-08-05T03:51:34;94714.22;;;20.01;94.06
12077;BME280;12420;42.676;23.262;2022-08-05T03:54:11;94702.09;;;19.98;94.58
12077;BME280;12420;42.676;23.262;2022-08-05T03:56:46;94721.75;;;20.08;94.91
12077;BME280;12420;42.676;23.262;2022-08-05T03:59:16;94719.88;;;20.20;93.41
12077;BME280;12420;42.676;23.262;2022-08-05T04:01:47;94719.88;;;20.20;92.77
12077;BME280;12420;42.676;23.262;2022-08-05T04:04:16;94718.06;;;20.25;92.82
12077;BME280;12420;42.676;23.262;2022-08-05T04:06:45;94717.50;;;20.36;92.88
12077;BME280;12420;42.676;23.262;2022-08-05T04:09:14;94704.19;;;20.36;92.10
12077;BME280;12420;42.676;23.262;2022-08-05T04:11:42;94718.28;;;20.56;91.75
12077;BME280;12420;42.676;23.262;2022-08-05T04:14:10;94707.31;;;20.60;90.36
12077;BME280;12420;42.676;23.262;2022-08-05T04:16:36;94680.22;;;20.55;88.74
12077;BME280;12420;42.676;23.262;2022-08-05T04:19:03;94711.28;;;20.86;88.19
12077;BME280;12420;42.676;23.262;2022-08-05T04:21:30;94677.41;;;20.74;87.37
12077;BME280;12420;42.676;23.262;2022-08-05T04:23:57;94719.38;;;21.11;85.50
12077;BME280;12420;42.676;23.262;2022-08-05T04:26:27;94721.81;;;21.36;84.19
12077;BME280;12420;42.676;23.262;2022-08-05T04:28:56;94718.59;;;21.40;83.75
12077;BME280;12420;42.676;23.262;2022-08-05T04:31:23;94719.84;;;21.58;83.04
12077;BME280;12420;42.676;23.262;2022-08-05T04:33:50;94724.19;;;21.81;81.44
12077;BME280;12420;42.676;23.262;2022-08-05T04:36:17;94718.81;;;21.85;82.85
12077;BME280;12420;42.676;23.262;2022-08-05T04:38:44;94720.13;;;21.94;81.97
12077;BME280;12420;42.676;23.262;2022-08-05T04:41:11;94706.91;;;21.96;81.54
12077;BME280;12420;42.676;23.262;2022-08-05T04:43:38;94716.59;;;22.15;80.91
12077;BME280;12420;42.676;23.262;2022-08-05T04:46:07;94691.75;;;22.01;79.76
12077;BME280;12420;42.676;23.262;2022-08-05T04:48:34;94723.31;;;22.31;78.67
12077;BME280;12420;42.676;23.262;2022-08-05T04:51:03;94697.56;;;22.25;79.44
12077;BME280;12420;42.676;23.262;2022-08-05T04:53:32;94700.09;;;22.42;77.63
12077;BME280;12420;42.676;23.262;2022-08-05T04:55:59;94718.81;;;22.59;77.87
12077;BME280;12420;42.676;23.262;2022-08-05T04:58:26;94709.38;;;22.66;76.87
12077;BME280;12420;42.676;23.262;2022-08-05T05:00:53;94693.19;;;22.67;77.65
12077;BME280;12420;42.676;23.262;2022-08-05T05:03:21;94706.47;;;22.98;74.72
12077;BME280;12420;42.676;23.262;2022-08-05T05:05:49;94696.66;;;22.99;74.16
12077;BME280;12420;42.676;23.262;2022-08-05T05:08:16;94748.38;;;23.25;74.60
12077;BME280;12420;42.676;23.262;2022-08-05T05:10:45;94713.81;;;23.36;73.21
12077;BME280;12420;42.676;23.262;2022-08-05T05:13:13;94718.47;;;23.31;72.87
12077;BME280;12420;42.676;23.262;2022-08-05T05:15:41;94713.63;;;23.22;72.59
12077;BME280;12420;42.676;23.262;2022-08-05T05:18:12;94716.00;;;23.37;71.57
12077;BME280;12420;42.676;23.262;2022-08-05T05:20:42;94720.06;;;23.46;71.46
12077;BME280;12420;42.676;23.262;2022-08-05T05:23:09;94688.97;;;23.34;71.40
12077;BME280;12420;42.676;23.262;2022-08-05T05:25:39;94716.50;;;23.46;71.22
12077;BME280;12420;42.676;23.262;2022-08-05T05:28:06;94720.19;;;23.60;71.63
12077;BME280;12420;42.676;23.262;2022-08-05T05:30:36;94713.44;;;23.65;72.02
12077;BME280;12420;42.676;23.262;2022-08-05T05:33:05;94720.34;;;23.62;70.51
12077;BME280;12420;42.676;23.262;2022-08-05T05:35:32;94714.81;;;23.64;70.01
12077;BME280;12420;42.676;23.262;2022-08-05T05:38:02;94715.06;;;23.56;70.49
12077;BME280;12420;42.676;23.262;2022-08-05T05:40:31;94715.91;;;23.59;70.31
12077;BME280;12420;42.676;23.262;2022-08-05T05:42:58;94686.41;;;23.38;69.77
12077;BME280;12420;42.676;23.262;2022-08-05T05:45:25;94715.31;;;23.72;69.70
12077;BME280;12420;42.676;23.262;2022-08-05T05:47:52;94721.84;;;23.75;69.75
12077;BME280;12420;42.676;23.262;2022-08-05T05:50:19;94700.69;;;23.64;68.69
12077;BME280;12420;42.676;23.262;2022-08-05T05:52:47;94721.47;;;23.92;68.34
12077;BME280;12420;42.676;23.262;2022-08-05T05:55:16;94722.81;;;24.03;67.85
12077;BME280;12420;42.676;23.262;2022-08-05T05:57:44;94683.72;;;23.99;67.74
12077;BME280;12420;42.676;23.262;2022-08-05T06:00:14;94709.75;;;24.21;65.36
12077;BME280;12420;42.676;23.262;2022-08-05T06:02:41;94705.91;;;24.29;65.07
12077;BME280;12420;42.676;23.262;2022-08-05T06:05:11;94701.13;;;24.31;64.77
12077;BME280;12420;42.676;23.262;2022-08-05T06:07:40;94729.00;;;24.60;63.59
12077;BME280;12420;42.676;23.262;2022-08-05T06:10:08;94703.75;;;24.64;62.56
12077;BME280;12420;42.676;23.262;2022-08-05T06:12:41;94729.75;;;24.86;63.07
12077;BME280;12420;42.676;23.262;2022-08-05T06:15:08;94741.41;;;24.92;62.14
12077;BME280;12420;42.676;23.262;2022-08-05T06:17:35;94744.81;;;25.03;62.84
12077;BME280;12420;42.676;23.262;2022-08-05T06:20:03;94729.13;;;25.13;63.06
12077;BME280;12420;42.676;23.262;2022-08-05T06:22:32;94725.94;;;25.19;62.87
12077;BME280;12420;42.676;23.262;2022-08-05T06:24:59;94724.28;;;25.28;63.35
12077;BME280;12420;42.676;23.262;2022-08-05T06:27:26;94704.44;;;25.28;63.23
12077;BME280;12420;42.676;23.262;2022-08-05T06:29:55;94700.06;;;25.39;63.52
12077;BME280;12420;42.676;23.262;2022-08-05T06:32:21;94724.88;;;25.66;61.10
12077;BME280;12420;42.676;23.262;2022-08-05T06:34:48;94718.50;;;25.79;60.43
12077;BME280;12420;42.676;23.262;2022-08-05T06:37:15;94715.78;;;25.67;60.82
12077;BME280;12420;42.676;23.262;2022-08-05T06:39:42;94723.66;;;25.83;60.75
12077;BME280;12420;42.676;23.262;2022-08-05T06:42:09;94717.78;;;25.92;59.52
12077;BME280;12420;42.676;23.262;2022-08-05T06:44:37;94729.78;;;26.18;59.81
12077;BME280;12420;42.676;23.262;2022-08-05T06:47:08;94724.09;;;26.32;57.06
12077;BME280;12420;42.676;23.262;2022-08-05T06:49:38;94725.06;;;26.23;56.54
12077;BME280;12420;42.676;23.262;2022-08-05T06:52:05;94724.75;;;26.17;56.32
12077;BME280;12420;42.676;23.262;2022-08-05T06:54:32;94729.78;;;26.32;56.09
12077;BME280;12420;42.676;23.262;2022-08-05T06:56:59;94718.41;;;26.46;55.88
12077;BME280;12420;42.676;23.262;2022-08-05T06:59:26;94722.53;;;26.57;53.72
12077;BME280;12420;42.676;23.262;2022-08-05T07:01:53;94686.03;;;26.37;53.69
12077;BME280;12420;42.676;23.262;2022-08-05T07:04:21;94721.53;;;26.66;57.11
12077;BME280;12420;42.676;23.262;2022-08-05T07:06:50;94721.63;;;26.68;55.42
12077;BME280;12420;42.676;23.262;2022-08-05T07:09:17;94714.69;;;26.71;54.25
12077;BME280;12420;42.676;23.262;2022-08-05T07:11:46;94730.75;;;26.80;53.42
12077;BME280;12420;42.676;23.262;2022-08-05T07:14:13;94735.56;;;26.92;53.79
12077;BME280;12420;42.676;23.262;2022-08-05T07:16:58;94714.16;;;26.75;52.89
12077;BME280;12420;42.676;23.262;2022-08-05T07:19:27;94715.50;;;26.88;54.78
12077;BME280;12420;42.676;23.262;2022-08-05T07:21:54;94726.44;;;27.09;53.59
12077;BME280;12420;42.676;23.262;2022-08-05T07:24:22;94662.50;;;26.49;53.08
12077;BME280;12420;42.676;23.262;2022-08-05T07:26:48;94732.03;;;27.21;53.25
12077;BME280;12420;42.676;23.262;2022-08-05T07:29:15;94725.97;;;27.28;50.56
12077;BME280;12420;42.676;23.262;2022-08-05T07:31:42;94732.16;;;27.39;50.95
12077;BME280;12420;42.676;23.262;2022-08-05T07:34:09;94737.56;;;27.33;50.95
12077;BME280;12420;42.676;23.262;2022-08-05T07:36:38;94707.91;;;27.22;49.68
12077;BME280;12420;42.676;23.262;2022-08-05T07:39:06;94726.81;;;27.31;49.94
12077;BME280;12420;42.676;23.262;2022-08-05T07:41:34;94723.34;;;27.33;50.49
12077;BME280;12420;42.676;23.262;2022-08-05T07:44:02;94724.22;;;27.21;50.22
12077;BME280;12420;42.676;23.262;2022-08-05T07:46:31;94718.63;;;27.23;50.08
12077;BME280;12420;42.676;23.262;2022-08-05T07:48:59;94722.69;;;27.50;50.75
12077;BME280;12420;42.676;23.262;2022-08-05T07:51:26;94720.63;;;27.66;50.62
12077;BME280;12420;42.676;23.262;2022-08-05T07:53:55;94720.63;;;27.66;49.80
12077;BME280;12420;42.676;23.262;2022-08-05T07:56:21;94742.72;;;27.68;48.95
12077;BME280;12420;42.676;23.262;2022-08-05T07:58:48;94679.25;;;27.63;48.83
12077;BME280;12420;42.676;23.262;2022-08-05T08:01:15;94685.47;;;27.76;48.43
12077;BME280;12420;42.676;23.262;2022-08-05T08:03:42;94727.41;;;28.23;49.20
12077;BME280;12420;42.676;23.262;2022-08-05T08:06:09;94726.09;;;28.26;48.56
12077;BME280;12420;42.676;23.262;2022-08-05T08:08:36;94730.25;;;28.23;48.12
12077;BME280;12420;42.676;23.262;2022-08-05T08:11:04;94722.38;;;28.39;48.03
12077;BME280;12420;42.676;23.262;2022-08-05T08:13:31;94730.59;;;28.31;48.12
12077;BME280;12420;42.676;23.262;2022-08-05T08:15:58;94728.03;;;28.21;47.30
12077;BME280;12420;42.676;23.262;2022-08-05T08:18:27;94725.69;;;28.49;46.59
12077;BME280;12420;42.676;23.262;2022-08-05T08:20:54;94715.78;;;28.50;46.14
12077;BME280;12420;42.676;23.262;2022-08-05T08:23:21;94719.94;;;28.47;47.11
12077;BME280;12420;42.676;23.262;2022-08-05T08:25:47;94722.94;;;28.51;46.65
12077;BME280;12420;42.676;23.262;2022-08-05T08:28:16;94704.56;;;28.54;46.01
12077;BME280;12420;42.676;23.262;2022-08-05T08:30:43;94712.66;;;28.78;45.87
12077;BME280;12420;42.676;23.262;2022-08-05T08:33:10;94695.97;;;28.70;45.96
12077;BME280;12420;42.676;23.262;2022-08-05T08:35:37;94713.16;;;28.90;44.92
12077;BME280;12420;42.676;23.262;2022-08-05T08:38:04;94722.13;;;28.83;43.54
12077;BME280;12420;42.676;23.262;2022-08-05T08:40:32;94705.75;;;28.83;44.78
12077;BME280;12420;42.676;23.262;2022-08-05T08:43:00;94714.72;;;28.93;44.40
12077;BME280;12420;42.676;23.262;2022-08-05T08:45:29;94725.25;;;29.07;42.39
12077;BME280;12420;42.676;23.262;2022-08-05T08:47:58;94695.59;;;28.96;41.82
12077;BME280;12420;42.676;23.262;2022-08-05T08:50:28;94719.19;;;29.34;42.21
12077;BME280;12420;42.676;23.262;2022-08-05T08:53:03;94714.41;;;29.39;41.13
12077;BME280;12420;42.676;23.262;2022-08-05T08:55:32;94719.34;;;29.38;40.45
12077;BME280;12420;42.676;23.262;2022-08-05T08:58:00;94714.28;;;29.55;40.23
12077;BME280;12420;42.676;23.262;2022-08-05T09:00:26;94698.53;;;29.54;40.02
12077;BME280;12420;42.676;23.262;2022-08-05T09:02:55;94717.69;;;29.69;40.88
12077;BME280;12420;42.676;23.262;2022-08-05T09:05:23;94700.66;;;29.53;40.24
12077;BME280;12420;42.676;23.262;2022-08-05T09:07:50;94704.69;;;29.84;41.80
12077;BME280;12420;42.676;23.262;2022-08-05T09:10:17;94676.59;;;29.76;41.29
12077;BME280;12420;42.676;23.262;2022-08-05T09:12:44;94679.69;;;29.82;38.91
12077;BME280;12420;42.676;23.262;2022-08-05T09:15:11;94629.94;;;29.68;37.90
12077;BME280;12420;42.676;23.262;2022-08-05T09:17:39;94663.44;;;29.87;37.90
12077;BME280;12420;42.676;23.262;2022-08-05T09:20:09;94659.69;;;30.02;37.63
12077;BME280;12420;42.676;23.262;2022-08-05T09:23:08;94681.69;;;30.20;36.55
12077;BME280;12420;42.676;23.262;2022-08-05T09:25:40;94684.47;;;30.38;38.60
12077;BME280;12420;42.676;23.262;2022-08-05T09:28:13;94677.59;;;30.45;36.72
12077;BME280;12420;42.676;23.262;2022-08-05T09:30:51;94677.00;;;30.48;35.49
12077;BME280;12420;42.676;23.262;2022-08-05T09:33:19;94676.41;;;30.52;35.26
12077;BME280;12420;42.676;23.262;2022-08-05T09:36:08;94677.06;;;30.50;36.26
12077;BME280;12420;42.676;23.262;2022-08-05T09:38:35;94658.59;;;30.32;36.39
12077;BME280;12420;42.676;23.262;2022-08-05T09:41:04;94672.16;;;30.53;35.54
12077;BME280;12420;42.676;23.262;2022-08-05T09:43:33;94657.06;;;30.50;36.12
12077;BME280;12420;42.676;23.262;2022-08-05T09:46:00;94666.91;;;30.67;35.79
12077;BME280;12420;42.676;23.262;2022-08-05T09:48:28;94662.25;;;30.78;36.05
12077;BME280;12420;42.676;23.262;2022-08-05T09:50:58;94633.97;;;30.64;35.34
12077;BME280;12420;42.676;23.262;2022-08-05T09:53:29;94648.50;;;30.72;35.63
12077;BME280;12420;42.676;23.262;2022-08-05T09:55:58;94656.63;;;31.02;35.78
12077;BME280;12420;42.676;23.262;2022-08-05T09:58:26;94647.25;;;30.78;34.99
12077;BME280;12420;42.676;23.262;2022-08-05T10:00:57;94654.50;;;30.81;35.42
12077;BME280;12420;42.676;23.262;2022-08-05T10:03:27;94646.22;;;30.89;35.14
12077;BME280;12420;42.676;23.262;2022-08-05T10:06:06;94657.78;;;30.71;35.16
12077;BME280;12420;42.676;23.262;2022-08-05T10:08:41;94616.56;;;30.56;34.79
12077;BME280;12420;42.676;23.262;2022-08-05T10:11:13;94646.44;;;30.75;35.33
12077;BME280;12420;42.676;23.262;2022-08-05T10:13:41;94646.88;;;30.87;34.75
12077;BME280;12420;42.676;23.262;2022-08-05T10:16:27;94612.78;;;30.71;34.77
12077;BME280;12420;42.676;23.262;2022-08-05T10:18:55;94640.03;;;30.97;34.13
12077;BME280;12420;42.676;23.262;2022-08-05T10:21:22;94615.81;;;30.78;33.74
12077;BME280;12420;42.676;23.262;2022-08-05T10:23:50;94627.75;;;30.92;34.08
12077;BME280;12420;42.676;23.262;2022-08-05T10:26:20;94633.16;;;31.06;33.99
12077;BME280;12420;42.676;23.262;2022-08-05T10:28:48;94626.88;;;31.11;34.61
12077;BME280;12420;42.676;23.262;2022-08-05T10:31:16;94608.34;;;31.12;34.93
12077;BME280;12420;42.676;23.262;2022-08-05T10:33:46;94627.81;;;31.42;32.70
12077;BME280;12420;42.676;23.262;2022-08-05T10:36:16;94632.44;;;31.29;33.34
12077;BME280;12420;42.676;23.262;2022-08-05T10:38:45;94614.31;;;30.97;34.31
12077;BME280;12420;42.676;23.262;2022-08-05T10:41:21;94624.16;;;31.15;35.37
12077;BME280;12420;42.676;23.262;2022-08-05T10:44:00;94614.19;;;31.17;33.97
12077;BME280;12420;42.676;23.262;2022-08-05T10:46:45;94620.50;;;31.37;33.31
12077;BME280;12420;42.676;23.262;2022-08-05T10:49:12;94617.94;;;31.45;33.94
12077;BME280;12420;42.676;23.262;2022-08-05T10:51:43;94609.88;;;31.15;33.71
12077;BME280;12420;42.676;23.262;2022-08-05T10:54:11;94590.91;;;31.02;33.61
12077;BME280;12420;42.676;23.262;2022-08-05T10:56:44;94576.84;;;30.64;32.94
12077;BME280;12420;42.676;23.262;2022-08-05T10:59:16;94594.03;;;30.66;33.68
12077;BME280;12420;42.676;23.262;2022-08-05T11:01:43;94614.25;;;30.95;32.62
12077;BME280;12420;42.676;23.262;2022-08-05T11:04:11;94607.84;;;30.96;33.32
12077;BME280;12420;42.676;23.262;2022-08-05T11:07:04;94601.06;;;31.07;33.48
12077;BME280;12420;42.676;23.262;2022-08-05T11:09:41;94592.72;;;31.15;34.29
12077;BME280;12420;42.676;23.262;2022-08-05T11:12:42;94593.81;;;31.04;33.82
12077;BME280;12420;42.676;23.262;2022-08-05T11:15:19;94597.78;;;31.17;33.27
12077;BME280;12420;42.676;23.262;2022-08-05T11:17:47;94599.28;;;31.20;34.10
12077;BME280;12420;42.676;23.262;2022-08-05T11:20:37;94593.38;;;31.62;31.91
12077;BME280;12420;42.676;23.262;2022-08-05T11:23:26;94596.19;;;31.86;32.46
12077;BME280;12420;42.676;23.262;2022-08-05T11:26:19;94596.19;;;31.86;32.14
12077;BME280;12420;42.676;23.262;2022-08-05T11:28:49;94610.88;;;31.74;32.41
12077;BME280;12420;42.676;23.262;2022-08-05T11:31:25;94587.03;;;31.66;32.01
12077;BME280;12420;42.676;23.262;2022-08-05T11:34:05;94581.75;;;31.56;32.02
12077;BME280;12420;42.676;23.262;2022-08-05T11:36:47;94589.78;;;31.62;32.14
12077;BME280;12420;42.676;23.262;2022-08-05T11:39:45;94589.72;;;31.60;31.60
12077;BME280;12420;42.676;23.262;2022-08-05T11:42:04;94577.31;;;31.77;31.77
12077;BME280;12420;42.676;23.262;2022-08-05T11:44:41;94581.81;;;31.84;31.19
12077;BME280;12420;42.676;23.262;2022-08-05T11:47:09;94583.56;;;31.95;31.26
12077;BME280;12420;42.676;23.262;2022-08-05T11:49:36;94589.66;;;32.10;31.35
12077;BME280;12420;42.676;23.262;2022-08-05T11:52:04;94577.38;;;32.33;31.01
12077;BME280;12420;42.676;23.262;2022-08-05T11:54:33;94580.03;;;32.53;30.57
12077;BME280;12420;42.676;23.262;2022-08-05T11:57:04;94578.78;;;32.60;30.82
12077;BME280;12420;42.676;23.262;2022-08-05T11:59:33;94575.50;;;32.72;30.37
12077;BME280;12420;42.676;23.262;2022-08-05T12:02:03;94562.97;;;32.57;30.13
12077;BME280;12420;42.676;23.262;2022-08-05T12:04:38;94565.44;;;32.43;30.66
12077;BME280;12420;42.676;23.262;2022-08-05T12:07:06;94571.34;;;32.21;30.78
12077;BME280;12420;42.676;23.262;2022-08-05T12:09:36;94567.84;;;31.96;31.79
12077;BME280;12420;42.676;23.262;2022-08-05T12:12:04;94566.09;;;31.85;32.41
12077;BME280;12420;42.676;23.262;2022-08-05T12:14:36;94561.78;;;31.84;32.42
12077;BME280;12420;42.676;23.262;2022-08-05T12:17:09;94551.00;;;31.56;32.40
12077;BME280;12420;42.676;23.262;2022-08-05T12:19:42;94558.44;;;31.66;32.33
12077;BME280;12420;42.676;23.262;2022-08-05T12:22:10;94559.78;;;31.63;31.85
12077;BME280;12420;42.676;23.262;2022-08-05T12:24:45;94561.06;;;31.84;32.09
12077;BME280;12420;42.676;23.262;2022-08-05T12:27:18;94552.75;;;32.22;30.79
12077;BME280;12420;42.676;23.262;2022-08-05T12:29:57;94547.03;;;32.50;31.42
12077;BME280;12420;42.676;23.262;2022-08-05T12:32:26;94548.63;;;32.88;31.46
12077;BME280;12420;42.676;23.262;2022-08-05T12:34:55;94525.66;;;32.55;30.68
12077;BME280;12420;42.676;23.262;2022-08-05T12:37:23;94552.22;;;32.88;30.56
12077;BME280;12420;42.676;23.262;2022-08-05T12:39:50;94551.66;;;32.96;29.26
12077;BME280;12420;42.676;23.262;2022-08-05T12:42:20;94540.50;;;32.78;29.56
12077;BME280;12420;42.676;23.262;2022-08-05T12:44:48;94540.16;;;33.26;28.97
12077;BME280;12420;42.676;23.262;2022-08-05T12:47:27;94536.78;;;33.38;27.96
12077;BME280;12420;42.676;23.262;2022-08-05T12:49:54;94529.81;;;33.47;28.90
12077;BME280;12420;42.676;23.262;2022-08-05T12:52:21;94549.56;;;33.31;30.39
12077;BME280;12420;42.676;23.262;2022-08-05T12:54:48;94531.59;;;32.96;31.68
12077;BME280;12420;42.676;23.262;2022-08-05T12:57:16;94513.94;;;32.75;31.45
12077;BME280;12420;42.676;23.262;2022-08-05T12:59:49;94532.63;;;32.78;31.18
12077;BME280;12420;42.676;23.262;2022-08-05T13:02:19;94534.28;;;32.88;31.43
12077;BME280;12420;42.676;23.262;2022-08-05T13:04:48;94534.31;;;32.57;31.51
12077;BME280;12420;42.676;23.262;2022-08-05T13:07:19;94525.97;;;32.39;31.91